createdAt,value
2017-05-27T00:00:00.878Z,77.26
2017-05-27T00:01:01.469Z,76.50
2017-05-27T00:02:02.043Z,77.36
2017-05-27T00:03:02.621Z,76.73
2017-05-27T00:04:03.197Z,76.12
2017-05-27T00:05:03.773Z,77.46
2017-05-27T00:06:04.349Z,76.98
2017-05-27T00:07:04.926Z,77.46
2017-05-27T00:08:05.503Z,77.65
2017-05-27T00:09:06.080Z,77.36
2017-05-27T00:10:06.656Z,77.17
2017-05-27T00:11:07.233Z,77.08
2017-05-27T00:12:07.811Z,77.17
2017-05-27T00:13:08.389Z,77.17
2017-05-27T00:14:08.966Z,77.75
2017-05-27T00:15:09.543Z,77.26
2017-05-27T00:16:10.132Z,77.17
2017-05-27T00:17:10.712Z,77.65
2017-05-27T00:18:11.293Z,78.03
2017-05-27T00:19:11.868Z,78.09
2017-05-27T00:20:12.444Z,78.86
2017-05-27T00:21:13.021Z,79.19
2017-05-27T00:22:13.598Z,77.94
2017-05-27T00:23:14.175Z,77.46
2017-05-27T00:24:14.751Z,77.26
2017-05-27T00:25:15.330Z,77.75
2017-05-27T00:26:15.905Z,78.32
2017-05-27T00:27:16.498Z,77.94
2017-05-27T00:28:17.072Z,78.09
2017-05-27T00:29:17.649Z,77.65
2017-05-27T00:30:18.227Z,78.03
2017-05-27T00:31:18.816Z,77.80
2017-05-27T00:32:19.393Z,78.42
2017-05-27T00:33:19.982Z,77.46
2017-05-27T00:34:20.557Z,78.38
2017-05-27T00:35:21.133Z,78.52
2017-05-27T00:36:21.709Z,78.96
2017-05-27T00:37:22.286Z,78.19
2017-05-27T00:38:22.860Z,78.03
2017-05-27T00:39:23.437Z,78.28
2017-05-27T00:40:24.015Z,78.13
2017-05-27T00:41:24.592Z,77.56
2017-05-27T00:42:25.170Z,78.32
2017-05-27T00:43:25.747Z,78.80
2017-05-27T00:44:26.326Z,78.61
2017-05-27T00:45:26.901Z,78.32
2017-05-27T00:46:27.480Z,78.03
2017-05-27T00:47:28.055Z,78.03
2017-05-27T00:48:28.631Z,77.84
2017-05-27T00:49:29.209Z,78.03
2017-05-27T00:50:29.784Z,78.70
2017-05-27T00:51:30.361Z,79.09
2017-05-27T00:52:30.937Z,78.61
2017-05-27T00:53:31.513Z,79.09
2017-05-27T00:54:32.090Z,79.09
2017-05-27T00:55:32.665Z,78.70
2017-05-27T00:56:33.241Z,78.77
2017-05-27T00:57:33.831Z,78.32
2017-05-27T00:58:34.420Z,77.71
2017-05-27T00:59:34.997Z,78.67
2017-05-27T01:00:35.575Z,78.57
2017-05-27T01:01:36.151Z,78.80
2017-05-27T01:02:36.729Z,78.38
2017-05-27T01:03:37.305Z,78.86
2017-05-27T01:04:37.885Z,78.61
2017-05-27T01:05:38.460Z,78.52
2017-05-27T01:06:39.036Z,78.77
2017-05-27T01:07:39.613Z,78.70
2017-05-27T01:08:40.190Z,78.70
2017-05-27T01:09:40.778Z,78.52
2017-05-27T01:10:41.354Z,78.80
2017-05-27T01:11:41.932Z,78.42
2017-05-27T01:12:42.509Z,77.84
2017-05-27T01:13:43.086Z,78.52
2017-05-27T01:14:43.662Z,77.84
2017-05-27T01:15:44.238Z,78.70
2017-05-27T01:16:44.815Z,79.09
2017-05-27T01:17:45.391Z,79.53
2017-05-27T01:18:45.968Z,80.30
2017-05-27T01:19:46.545Z,80.11
2017-05-27T01:20:47.122Z,81.41
2017-05-27T01:21:47.698Z,82.31
2017-05-27T01:22:48.277Z,80.78
2017-05-27T01:23:48.854Z,80.40
2017-05-27T01:24:49.432Z,80.68
2017-05-27T01:25:50.009Z,80.11
2017-05-27T01:26:50.586Z,80.87
2017-05-27T01:27:51.162Z,80.78
2017-05-27T01:28:51.739Z,80.68
2017-05-27T01:29:52.319Z,80.40
2017-05-27T01:30:52.893Z,80.11
2017-05-27T01:31:53.469Z,80.40
2017-05-27T01:32:54.045Z,80.40
2017-05-27T01:33:54.621Z,80.78
2017-05-27T01:34:55.197Z,79.91
2017-05-27T01:35:55.773Z,80.78
2017-05-27T01:36:56.350Z,80.78
2017-05-27T01:37:56.927Z,81.45
2017-05-27T01:38:57.507Z,82.27
2017-05-27T01:39:58.080Z,81.74
2017-05-27T01:40:58.655Z,82.08
2017-05-27T01:41:59.231Z,81.98
2017-05-27T01:42:59.808Z,83.29
2017-05-27T01:44:00.387Z,85.11
2017-05-27T01:45:00.966Z,86.07
2017-05-27T01:46:01.545Z,85.01
2017-05-27T01:47:02.124Z,84.48
2017-05-27T01:48:02.712Z,82.27
2017-05-27T01:49:03.292Z,81.74
2017-05-27T01:50:03.870Z,82.03
2017-05-27T01:51:04.447Z,81.02
2017-05-27T01:52:05.024Z,82.65
2017-05-27T01:53:05.602Z,82.46
2017-05-27T01:54:06.179Z,83.58
2017-05-27T01:55:06.757Z,83.23
2017-05-27T01:56:07.334Z,83.29
2017-05-27T01:57:07.911Z,83.33
2017-05-27T01:58:08.488Z,82.31
2017-05-27T01:59:09.066Z,81.64
2017-05-27T02:00:09.647Z,81.26
2017-05-27T02:01:10.223Z,81.07
2017-05-27T02:02:10.803Z,79.63
2017-05-27T02:03:11.393Z,80.20
2017-05-27T02:04:11.971Z,80.97
2017-05-27T02:05:12.551Z,81.26
2017-05-27T02:06:13.129Z,80.97
2017-05-27T02:07:13.721Z,80.30
2017-05-27T02:08:14.301Z,80.40
2017-05-27T02:09:14.879Z,80.87
2017-05-27T02:10:15.457Z,80.40
2017-05-27T02:11:16.034Z,79.72
2017-05-27T02:12:16.612Z,80.20
2017-05-27T02:13:17.190Z,79.82
2017-05-27T02:14:17.766Z,80.87
2017-05-27T02:15:18.344Z,80.78
2017-05-27T02:16:18.920Z,80.78
2017-05-27T02:17:19.510Z,80.30
2017-05-27T02:18:20.088Z,80.35
2017-05-27T02:19:20.666Z,81.22
2017-05-27T02:20:21.244Z,81.45
2017-05-27T02:21:21.822Z,82.12
2017-05-27T02:22:22.401Z,81.70
2017-05-27T02:23:22.977Z,83.58
2017-05-27T02:24:23.556Z,84.82
2017-05-27T02:25:24.146Z,83.95
2017-05-27T02:26:24.725Z,83.86
2017-05-27T02:27:25.320Z,82.56
2017-05-27T02:28:25.895Z,82.18
2017-05-27T02:29:26.474Z,81.89
2017-05-27T02:30:27.054Z,82.08
2017-05-27T02:31:27.629Z,82.37
2017-05-27T02:32:28.207Z,82.21
2017-05-27T02:33:28.784Z,81.98
2017-05-27T02:34:29.362Z,82.75
2017-05-27T02:35:29.938Z,82.60
2017-05-27T02:36:30.516Z,81.89
2017-05-27T02:37:31.093Z,82.08
2017-05-27T02:38:31.670Z,81.70
2017-05-27T02:39:32.250Z,82.37
2017-05-27T02:40:32.829Z,81.98
2017-05-27T02:41:33.405Z,82.56
2017-05-27T02:42:33.984Z,83.33
2017-05-27T02:43:34.562Z,82.37
2017-05-27T02:44:35.141Z,83.23
2017-05-27T02:45:35.719Z,82.56
2017-05-27T02:46:36.299Z,83.23
2017-05-27T02:47:36.875Z,83.09
2017-05-27T02:48:37.454Z,83.76
2017-05-27T02:49:38.032Z,83.33
2017-05-27T02:50:38.608Z,83.09
2017-05-27T02:51:39.199Z,83.33
2017-05-27T02:52:39.776Z,82.62
2017-05-27T02:53:40.354Z,84.39
2017-05-27T02:54:40.931Z,85.25
2017-05-27T02:55:41.508Z,84.05
2017-05-27T02:56:42.086Z,83.48
2017-05-27T02:57:42.663Z,82.56
2017-05-27T02:58:43.240Z,83.04
2017-05-27T02:59:43.818Z,82.56
2017-05-27T03:00:44.397Z,82.46
2017-05-27T03:01:44.976Z,82.52
2017-05-27T03:02:45.555Z,83.19
2017-05-27T03:03:46.134Z,84.20
2017-05-27T03:04:46.713Z,84.39
2017-05-27T03:05:47.290Z,84.34
2017-05-27T03:06:47.870Z,84.39
2017-05-27T03:07:48.446Z,83.92
2017-05-27T03:08:49.023Z,84.34
2017-05-27T03:09:49.600Z,84.00
2017-05-27T03:10:50.196Z,83.14
2017-05-27T03:11:50.770Z,83.04
2017-05-27T03:12:51.346Z,83.91
2017-05-27T03:13:51.924Z,84.25
2017-05-27T03:14:52.502Z,84.34
2017-05-27T03:15:53.079Z,83.76
2017-05-27T03:16:53.658Z,83.52
2017-05-27T03:17:54.251Z,82.85
2017-05-27T03:18:54.828Z,83.58
2017-05-27T03:19:55.407Z,83.95
2017-05-27T03:20:55.986Z,83.61
2017-05-27T03:21:56.567Z,82.65
2017-05-27T03:22:57.146Z,82.75
2017-05-27T03:23:57.726Z,83.14
2017-05-27T03:24:58.305Z,83.23
2017-05-27T03:25:58.884Z,82.46
2017-05-27T03:26:59.463Z,82.65
2017-05-27T03:28:00.042Z,82.37
2017-05-27T03:29:00.622Z,81.79
2017-05-27T03:30:01.213Z,83.33
2017-05-27T03:31:01.806Z,83.29
2017-05-27T03:32:02.384Z,83.58
2017-05-27T03:33:02.979Z,83.33
2017-05-27T03:34:03.554Z,82.85
2017-05-27T03:35:04.134Z,82.46
2017-05-27T03:36:04.714Z,81.70
2017-05-27T03:37:05.291Z,81.95
2017-05-27T03:38:05.872Z,82.65
2017-05-27T03:39:06.450Z,82.27
2017-05-27T03:40:07.031Z,81.98
2017-05-27T03:41:07.610Z,82.37
2017-05-27T03:42:08.188Z,82.37
2017-05-27T03:43:08.767Z,81.60
2017-05-27T03:44:09.344Z,81.41
2017-05-27T03:45:09.924Z,81.60
2017-05-27T03:46:10.503Z,81.98
2017-05-27T03:47:11.082Z,82.32
2017-05-27T03:48:11.673Z,83.23
2017-05-27T03:49:12.254Z,82.65
2017-05-27T03:50:12.835Z,81.89
2017-05-27T03:51:13.414Z,82.32
2017-05-27T03:52:13.995Z,82.08
2017-05-27T03:53:14.574Z,81.89
2017-05-27T03:54:15.154Z,82.08
2017-05-27T03:55:15.735Z,81.89
2017-05-27T03:56:16.314Z,81.89
2017-05-27T03:57:16.895Z,81.98
2017-05-27T03:58:17.474Z,82.52
2017-05-27T03:59:18.055Z,83.29
2017-05-27T04:00:18.635Z,83.33
2017-05-27T04:01:19.213Z,83.04
2017-05-27T04:02:19.795Z,82.08
2017-05-27T04:03:20.374Z,82.08
2017-05-27T04:04:20.953Z,82.12
2017-05-27T04:05:21.532Z,81.54
2017-05-27T04:06:22.113Z,81.26
2017-05-27T04:07:22.694Z,81.64
2017-05-27T04:08:23.275Z,81.98
2017-05-27T04:09:23.855Z,81.35
2017-05-27T04:10:24.433Z,80.58
2017-05-27T04:11:25.012Z,80.78
2017-05-27T04:12:25.592Z,80.49
2017-05-27T04:13:26.175Z,80.58
2017-05-27T04:14:26.755Z,80.68
2017-05-27T04:15:27.336Z,80.78
2017-05-27T04:16:27.930Z,81.16
2017-05-27T04:17:28.509Z,81.07
2017-05-27T04:18:29.101Z,80.49
2017-05-27T04:19:29.681Z,80.20
2017-05-27T04:20:30.261Z,80.34
2017-05-27T04:21:30.876Z,80.15
2017-05-27T04:22:31.423Z,79.67
2017-05-27T04:23:32.006Z,80.49
2017-05-27T04:24:32.587Z,80.34
2017-05-27T04:25:33.169Z,80.05
2017-05-27T04:26:33.750Z,79.96
2017-05-27T04:27:34.383Z,79.91
2017-05-27T04:28:34.912Z,80.87
2017-05-27T04:29:35.492Z,80.68
2017-05-27T04:30:36.074Z,80.49
2017-05-27T04:31:36.658Z,80.73
2017-05-27T04:32:37.252Z,79.96
2017-05-27T04:33:37.834Z,80.05
2017-05-27T04:34:38.415Z,80.91
2017-05-27T04:35:38.997Z,79.96
2017-05-27T04:36:39.579Z,80.05
2017-05-27T04:37:40.162Z,80.11
2017-05-27T04:38:40.744Z,81.01
2017-05-27T04:39:41.324Z,80.15
2017-05-27T04:40:41.906Z,79.76
2017-05-27T04:41:42.488Z,79.19
2017-05-27T04:42:43.069Z,79.67
2017-05-27T04:43:43.650Z,80.34
2017-05-27T04:44:44.232Z,79.76
2017-05-27T04:45:44.816Z,79.67
2017-05-27T04:46:45.398Z,79.09
2017-05-27T04:47:45.980Z,79.47
2017-05-27T04:48:46.562Z,79.19
2017-05-27T04:49:47.143Z,79.32
2017-05-27T04:50:47.726Z,79.03
2017-05-27T04:51:48.307Z,78.75
2017-05-27T04:52:48.888Z,78.75
2017-05-27T04:53:49.470Z,78.65
2017-05-27T04:54:50.063Z,79.03
2017-05-27T04:55:50.646Z,77.98
2017-05-27T04:56:51.229Z,77.98
2017-05-27T04:57:51.824Z,79.03
2017-05-27T04:58:52.405Z,78.75
2017-05-27T04:59:52.987Z,79.13
2017-05-27T05:00:53.570Z,78.08
2017-05-27T05:01:54.152Z,77.50
2017-05-27T05:02:54.734Z,77.98
2017-05-27T05:03:55.315Z,78.02
2017-05-27T05:04:55.897Z,77.92
2017-05-27T05:05:56.481Z,77.53
2017-05-27T05:06:57.062Z,77.25
2017-05-27T05:07:57.643Z,77.63
2017-05-27T05:08:58.225Z,77.53
2017-05-27T05:09:58.807Z,77.83
2017-05-27T05:10:59.391Z,77.44
2017-05-27T05:11:59.973Z,77.63
2017-05-27T05:13:00.554Z,77.25
2017-05-27T05:14:01.142Z,77.25
2017-05-27T05:15:01.731Z,77.25
2017-05-27T05:16:02.315Z,76.39
2017-05-27T05:17:02.897Z,76.67
2017-05-27T05:18:03.480Z,76.86
2017-05-27T05:19:04.059Z,77.09
2017-05-27T05:20:04.643Z,76.32
2017-05-27T05:21:05.225Z,76.86
2017-05-27T05:22:05.808Z,76.57
2017-05-27T05:23:06.390Z,76.96
2017-05-27T05:24:06.972Z,76.81
2017-05-27T05:25:07.556Z,76.23
2017-05-27T05:26:08.137Z,76.32
2017-05-27T05:27:08.737Z,76.23
2017-05-27T05:28:09.328Z,76.14
2017-05-27T05:29:09.912Z,76.71
2017-05-27T05:30:10.493Z,76.52
2017-05-27T05:31:11.076Z,76.52
2017-05-27T05:32:11.660Z,76.42
2017-05-27T05:33:12.242Z,75.56
2017-05-27T05:34:12.823Z,75.31
2017-05-27T05:35:13.422Z,74.63
2017-05-27T05:36:14.016Z,75.31
2017-05-27T05:37:14.599Z,75.75
2017-05-27T05:38:15.183Z,75.21
2017-05-27T05:39:15.766Z,74.98
2017-05-27T05:40:16.348Z,75.11
2017-05-27T05:41:16.929Z,75.11
2017-05-27T05:42:17.512Z,75.40
2017-05-27T05:43:18.095Z,74.82
2017-05-27T05:44:18.678Z,75.21
2017-05-27T05:45:19.261Z,74.54
2017-05-27T05:46:19.855Z,75.02
2017-05-27T05:47:20.450Z,75.11
2017-05-27T05:48:21.033Z,76.14
2017-05-27T05:49:21.627Z,75.98
2017-05-27T05:50:22.209Z,75.31
2017-05-27T05:51:22.791Z,75.40
2017-05-27T05:52:23.374Z,75.05
2017-05-27T05:53:23.957Z,74.09
2017-05-27T05:54:24.541Z,75.24
2017-05-27T05:55:25.124Z,75.05
2017-05-27T05:56:25.705Z,75.05
2017-05-27T05:57:26.289Z,75.05
2017-05-27T05:58:26.871Z,74.76
2017-05-27T05:59:27.454Z,74.19
2017-05-27T06:00:28.050Z,74.22
2017-05-27T06:01:28.633Z,73.84
2017-05-27T06:02:29.214Z,74.32
2017-05-27T06:03:29.799Z,74.57
2017-05-27T06:04:30.382Z,73.26
2017-05-27T06:05:30.965Z,74.41
2017-05-27T06:06:31.547Z,73.94
2017-05-27T06:07:32.131Z,73.58
2017-05-27T06:08:32.715Z,73.49
2017-05-27T06:09:33.297Z,73.49
2017-05-27T06:10:33.893Z,74.32
2017-05-27T06:11:34.476Z,73.74
2017-05-27T06:12:35.059Z,73.36
2017-05-27T06:13:35.641Z,74.22
2017-05-27T06:14:36.226Z,73.78
2017-05-27T06:15:36.809Z,72.63
2017-05-27T06:16:37.391Z,72.33
2017-05-27T06:17:37.973Z,71.60
2017-05-27T06:18:38.555Z,72.24
2017-05-27T06:19:39.140Z,72.14
2017-05-27T06:20:39.722Z,71.50
2017-05-27T06:21:40.305Z,71.70
2017-05-27T06:22:40.889Z,70.92
2017-05-27T06:23:41.471Z,70.25
2017-05-27T06:24:42.054Z,71.50
2017-05-27T06:25:42.637Z,70.73
2017-05-27T06:26:43.221Z,70.64
2017-05-27T06:27:43.805Z,69.71
2017-05-27T06:28:44.388Z,70.25
2017-05-27T06:29:44.970Z,70.06
2017-05-27T06:30:45.552Z,70.48
2017-05-27T06:31:46.136Z,70.25
2017-05-27T06:32:46.730Z,69.71
2017-05-27T06:33:47.314Z,68.93
2017-05-27T06:34:47.895Z,69.03
2017-05-27T06:35:48.477Z,69.71
2017-05-27T06:36:49.058Z,69.61
2017-05-27T06:37:49.641Z,69.03
2017-05-27T06:38:50.223Z,69.61
2017-05-27T06:39:50.805Z,69.07
2017-05-27T06:40:51.386Z,68.39
2017-05-27T06:41:51.970Z,68.87
2017-05-27T06:42:52.551Z,68.19
2017-05-27T06:43:53.132Z,68.59
2017-05-27T06:44:53.714Z,67.33
2017-05-27T06:45:54.296Z,67.52
2017-05-27T06:46:54.880Z,67.71
2017-05-27T06:47:55.460Z,67.36
2017-05-27T06:48:56.041Z,67.07
2017-05-27T06:49:56.637Z,67.36
2017-05-27T06:50:57.215Z,66.88
2017-05-27T06:51:57.797Z,67.07
2017-05-27T06:52:58.380Z,66.40
2017-05-27T06:53:58.960Z,66.43
2017-05-27T06:54:59.541Z,66.14
2017-05-27T06:56:00.124Z,66.63
2017-05-27T06:57:00.705Z,66.05
2017-05-27T06:58:01.286Z,66.59
2017-05-27T06:59:01.881Z,66.24
2017-05-27T07:00:02.461Z,65.59
2017-05-27T07:01:03.043Z,65.17
2017-05-27T07:02:03.624Z,65.27
2017-05-27T07:03:04.207Z,64.24
2017-05-27T07:04:04.789Z,64.43
2017-05-27T07:05:05.370Z,65.17
2017-05-27T07:06:05.952Z,65.37
2017-05-27T07:07:06.535Z,64.98
2017-05-27T07:08:07.118Z,64.43
2017-05-27T07:09:07.698Z,64.63
2017-05-27T07:10:08.293Z,64.56
2017-05-27T07:11:08.875Z,63.56
2017-05-27T07:12:09.455Z,63.47
2017-05-27T07:13:10.038Z,63.37
2017-05-27T07:14:10.620Z,62.89
2017-05-27T07:15:11.202Z,63.02
2017-05-27T07:16:11.784Z,63.56
2017-05-27T07:17:12.365Z,63.18
2017-05-27T07:18:12.948Z,62.89
2017-05-27T07:19:13.530Z,63.21
2017-05-27T07:20:14.112Z,62.44
2017-05-27T07:21:14.693Z,62.73
2017-05-27T07:22:15.276Z,61.76
2017-05-27T07:23:15.859Z,62.53
2017-05-27T07:24:16.442Z,62.56
2017-05-27T07:25:17.022Z,62.85
2017-05-27T07:26:17.605Z,62.27
2017-05-27T07:27:18.185Z,62.18
2017-05-27T07:28:18.767Z,61.24
2017-05-27T07:29:19.351Z,61.69
2017-05-27T07:30:19.930Z,61.69
2017-05-27T07:31:20.519Z,61.79
2017-05-27T07:32:21.109Z,60.66
2017-05-27T07:33:21.691Z,61.69
2017-05-27T07:34:22.275Z,61.30
2017-05-27T07:35:22.855Z,61.21
2017-05-27T07:36:23.450Z,61.05
2017-05-27T07:37:24.031Z,61.15
2017-05-27T07:38:24.611Z,62.11
2017-05-27T07:39:25.199Z,60.57
2017-05-27T07:40:25.778Z,61.30
2017-05-27T07:41:26.359Z,60.57
2017-05-27T07:42:26.941Z,61.15
2017-05-27T07:43:27.526Z,60.27
2017-05-27T07:44:28.108Z,60.08
2017-05-27T07:45:28.690Z,59.89
2017-05-27T07:46:29.271Z,60.27
2017-05-27T07:47:29.853Z,59.59
2017-05-27T07:48:30.439Z,60.66
2017-05-27T07:49:31.019Z,60.17
2017-05-27T07:50:31.605Z,59.50
2017-05-27T07:51:32.184Z,59.82
2017-05-27T07:52:32.767Z,58.65
2017-05-27T07:53:33.350Z,58.69
2017-05-27T07:54:33.933Z,59.07
2017-05-27T07:55:34.513Z,58.59
2017-05-27T07:56:35.097Z,59.07
2017-05-27T07:57:35.678Z,58.01
2017-05-27T07:58:36.262Z,58.01
2017-05-27T07:59:36.843Z,57.98
2017-05-27T08:00:37.427Z,58.07
2017-05-27T08:01:38.009Z,58.37
2017-05-27T08:02:38.594Z,57.98
2017-05-27T08:03:39.173Z,57.33
2017-05-27T08:04:39.768Z,57.23
2017-05-27T08:05:40.349Z,57.23
2017-05-27T08:06:40.932Z,57.45
2017-05-27T08:07:41.515Z,56.46
2017-05-27T08:08:42.097Z,56.75
2017-05-27T08:09:42.678Z,56.49
2017-05-27T08:10:43.262Z,55.98
2017-05-27T08:11:43.857Z,56.77
2017-05-27T08:12:44.445Z,56.39
2017-05-27T08:13:45.026Z,55.32
2017-05-27T08:14:45.608Z,55.90
2017-05-27T08:15:46.208Z,56.39
2017-05-27T08:16:46.787Z,55.32
2017-05-27T08:17:47.369Z,55.13
2017-05-27T08:18:47.953Z,54.67
2017-05-27T08:19:48.537Z,54.38
2017-05-27T08:20:49.118Z,54.67
2017-05-27T08:21:49.700Z,54.96
2017-05-27T08:22:50.283Z,54.77
2017-05-27T08:23:50.866Z,54.96
2017-05-27T08:24:51.450Z,54.48
2017-05-27T08:25:52.031Z,55.26
2017-05-27T08:26:52.614Z,54.09
2017-05-27T08:27:53.197Z,53.89
2017-05-27T08:28:53.780Z,53.53
2017-05-27T08:29:54.363Z,52.40
2017-05-27T08:30:54.946Z,51.59
2017-05-27T08:31:55.529Z,52.08
2017-05-27T08:32:56.114Z,52.66
2017-05-27T08:33:56.696Z,53.44
2017-05-27T08:34:57.279Z,52.66
2017-05-27T08:35:57.861Z,51.91
2017-05-27T08:36:58.444Z,51.84
2017-05-27T08:37:59.029Z,52.20
2017-05-27T08:38:59.610Z,53.31
2017-05-27T08:40:00.243Z,52.28
2017-05-27T08:41:00.827Z,51.69
2017-05-27T08:42:01.410Z,52.66
2017-05-27T08:43:01.992Z,52.50
2017-05-27T08:44:02.578Z,52.50
2017-05-27T08:45:03.161Z,52.59
2017-05-27T08:46:03.746Z,52.59
2017-05-27T08:47:04.329Z,52.40
2017-05-27T08:48:04.911Z,51.93
2017-05-27T08:49:05.495Z,51.35
2017-05-27T08:50:06.106Z,52.23
2017-05-27T08:51:06.661Z,52.40
2017-05-27T08:52:07.244Z,51.35
2017-05-27T08:53:07.841Z,51.23
2017-05-27T08:54:08.425Z,51.62
2017-05-27T08:55:09.013Z,51.26
2017-05-27T08:56:09.593Z,51.53
2017-05-27T08:57:10.176Z,51.26
2017-05-27T08:58:10.758Z,51.09
2017-05-27T08:59:11.341Z,50.02
2017-05-27T09:00:11.926Z,50.21
2017-05-27T09:01:12.510Z,50.02
2017-05-27T09:02:13.149Z,50.12
2017-05-27T09:03:13.678Z,49.54
2017-05-27T09:04:14.263Z,49.07
2017-05-27T09:05:14.846Z,49.34
2017-05-27T09:06:15.428Z,49.95
2017-05-27T09:07:16.012Z,49.85
2017-05-27T09:08:16.624Z,48.97
2017-05-27T09:09:17.218Z,49.46
2017-05-27T09:10:17.803Z,50.14
2017-05-27T09:11:18.384Z,49.46
2017-05-27T09:12:18.967Z,48.78
2017-05-27T09:13:19.553Z,49.46
2017-05-27T09:14:20.135Z,48.20
2017-05-27T09:15:20.721Z,49.07
2017-05-27T09:16:21.305Z,49.66
2017-05-27T09:17:21.889Z,49.49
2017-05-27T09:18:22.475Z,49.39
2017-05-27T09:19:23.060Z,50.14
2017-05-27T09:20:23.643Z,49.87
2017-05-27T09:21:24.227Z,49.10
2017-05-27T09:22:24.810Z,47.74
2017-05-27T09:23:25.396Z,48.71
2017-05-27T09:24:25.992Z,48.03
2017-05-27T09:25:26.575Z,49.49
2017-05-27T09:26:27.160Z,49.19
2017-05-27T09:27:27.745Z,48.93
2017-05-27T09:28:28.330Z,49.49
2017-05-27T09:29:28.914Z,48.93
2017-05-27T09:30:29.498Z,46.86
2017-05-27T09:31:30.081Z,47.83
2017-05-27T09:32:30.671Z,47.83
2017-05-27T09:33:31.251Z,47.56
2017-05-27T09:34:31.834Z,46.50
2017-05-27T09:35:32.417Z,46.98
2017-05-27T09:36:33.001Z,46.81
2017-05-27T09:37:33.586Z,47.30
2017-05-27T09:38:34.170Z,48.27
2017-05-27T09:39:34.753Z,47.56
2017-05-27T09:40:35.337Z,46.88
2017-05-27T09:41:35.924Z,46.69
2017-05-27T09:42:36.510Z,45.21
2017-05-27T09:43:37.095Z,46.30
2017-05-27T09:44:37.693Z,45.91
2017-05-27T09:45:38.278Z,46.88
2017-05-27T09:46:38.865Z,46.59
2017-05-27T09:47:39.447Z,47.76
2017-05-27T09:48:40.033Z,46.42
2017-05-27T09:49:40.630Z,45.72
2017-05-27T09:50:41.226Z,45.42
2017-05-27T09:51:41.811Z,47.00
2017-05-27T09:52:42.395Z,46.25
2017-05-27T09:53:42.978Z,46.25
2017-05-27T09:54:43.563Z,46.34
2017-05-27T09:55:44.151Z,45.67
2017-05-27T09:56:44.737Z,45.74
2017-05-27T09:57:45.318Z,45.25
2017-05-27T09:58:45.904Z,45.74
2017-05-27T09:59:46.490Z,46.81
2017-05-27T10:00:47.073Z,45.57
2017-05-27T10:01:47.657Z,43.79
2017-05-27T10:02:48.243Z,43.89
2017-05-27T10:03:48.828Z,43.70
2017-05-27T10:04:49.411Z,43.89
2017-05-27T10:05:50.005Z,43.99
2017-05-27T10:06:50.581Z,44.01
2017-05-27T10:07:51.166Z,42.84
2017-05-27T10:08:51.802Z,43.60
2017-05-27T10:09:52.347Z,43.70
2017-05-27T10:10:52.932Z,44.96
2017-05-27T10:11:53.518Z,44.79
2017-05-27T10:12:54.115Z,44.52
2017-05-27T10:13:54.700Z,44.20
2017-05-27T10:14:55.284Z,45.08
2017-05-27T10:15:55.882Z,44.30
2017-05-27T10:16:56.465Z,45.67
2017-05-27T10:17:57.050Z,45.10
2017-05-27T10:18:57.636Z,45.29
2017-05-27T10:19:58.221Z,44.32
2017-05-27T10:20:58.805Z,44.62
2017-05-27T10:21:59.396Z,43.84
2017-05-27T10:22:59.976Z,43.62
2017-05-27T10:24:00.560Z,42.57
2017-05-27T10:25:01.144Z,43.43
2017-05-27T10:26:01.729Z,44.01
2017-05-27T10:27:02.315Z,44.30
2017-05-27T10:28:02.899Z,43.95
2017-05-27T10:29:03.489Z,43.47
2017-05-27T10:30:04.069Z,44.90
2017-05-27T10:31:04.655Z,44.03
2017-05-27T10:32:05.240Z,43.54
2017-05-27T10:33:05.881Z,44.64
2017-05-27T10:34:06.466Z,44.15
2017-05-27T10:35:07.051Z,43.37
2017-05-27T10:36:07.637Z,43.37
2017-05-27T10:37:08.233Z,44.15
2017-05-27T10:38:08.818Z,42.88
2017-05-27T10:39:09.405Z,42.49
2017-05-27T10:40:10.003Z,42.10
2017-05-27T10:41:10.589Z,42.10
2017-05-27T10:42:11.174Z,42.40
2017-05-27T10:43:11.759Z,42.20
2017-05-27T10:44:12.347Z,42.76
2017-05-27T10:45:12.932Z,42.30
2017-05-27T10:46:13.516Z,43.37
2017-05-27T10:47:14.102Z,42.80
2017-05-27T10:48:14.701Z,42.22
2017-05-27T10:49:15.299Z,42.10
2017-05-27T10:50:15.884Z,42.10
2017-05-27T10:51:16.469Z,41.81
2017-05-27T10:52:17.056Z,42.41
2017-05-27T10:53:17.652Z,42.51
2017-05-27T10:54:18.238Z,43.49
2017-05-27T10:55:18.825Z,42.22
2017-05-27T10:56:19.409Z,40.95
2017-05-27T10:57:19.995Z,40.17
2017-05-27T10:58:20.581Z,41.05
2017-05-27T10:59:21.167Z,41.83
2017-05-27T11:00:21.765Z,42.41
2017-05-27T11:01:22.350Z,41.05
2017-05-27T11:02:22.934Z,40.27
2017-05-27T11:03:23.519Z,41.05
2017-05-27T11:04:24.106Z,40.76
2017-05-27T11:05:24.691Z,40.08
2017-05-27T11:06:25.276Z,40.17
2017-05-27T11:07:25.861Z,40.83
2017-05-27T11:08:26.447Z,40.45
2017-05-27T11:09:27.046Z,41.32
2017-05-27T11:10:27.634Z,40.73
2017-05-27T11:11:28.217Z,41.32
2017-05-27T11:12:28.804Z,41.73
2017-05-27T11:13:29.389Z,41.66
2017-05-27T11:14:29.974Z,41.15
2017-05-27T11:15:30.561Z,41.95
2017-05-27T11:16:31.146Z,41.46
2017-05-27T11:17:31.731Z,42.05
2017-05-27T11:18:32.317Z,41.07
2017-05-27T11:19:32.915Z,41.85
2017-05-27T11:20:33.500Z,41.75
2017-05-27T11:21:34.089Z,40.48
2017-05-27T11:22:34.675Z,40.58
2017-05-27T11:23:35.259Z,40.08
2017-05-27T11:24:35.846Z,40.93
2017-05-27T11:25:36.431Z,41.73
2017-05-27T11:26:37.020Z,41.56
2017-05-27T11:27:37.619Z,41.17
2017-05-27T11:28:38.206Z,41.36
2017-05-27T11:29:38.793Z,40.48
2017-05-27T11:30:39.392Z,40.00
2017-05-27T11:31:39.991Z,40.01
2017-05-27T11:32:40.579Z,40.00
2017-05-27T11:33:41.165Z,40.48
2017-05-27T11:34:41.752Z,40.68
2017-05-27T11:35:42.337Z,39.41
2017-05-27T11:36:42.937Z,40.19
2017-05-27T11:37:43.523Z,40.41
2017-05-27T11:38:44.112Z,40.50
2017-05-27T11:39:44.698Z,39.31
2017-05-27T11:40:45.284Z,39.41
2017-05-27T11:41:45.873Z,39.22
2017-05-27T11:42:46.457Z,39.82
2017-05-27T11:43:47.043Z,40.11
2017-05-27T11:44:47.629Z,39.53
2017-05-27T11:45:48.216Z,39.70
2017-05-27T11:46:48.804Z,40.11
2017-05-27T11:47:49.390Z,39.53
2017-05-27T11:48:49.978Z,38.84
2017-05-27T11:49:50.566Z,38.96
2017-05-27T11:50:51.153Z,38.75
2017-05-27T11:51:51.739Z,39.33
2017-05-27T11:52:52.337Z,39.22
2017-05-27T11:53:52.926Z,39.12
2017-05-27T11:54:53.513Z,38.43
2017-05-27T11:55:54.098Z,38.34
2017-05-27T11:56:54.685Z,39.43
2017-05-27T11:57:55.272Z,39.36
2017-05-27T11:58:55.860Z,38.38
2017-05-27T11:59:56.446Z,38.48
2017-05-27T12:00:57.034Z,38.48
2017-05-27T12:01:57.621Z,37.87
2017-05-27T12:02:58.208Z,37.48
2017-05-27T12:03:58.792Z,37.46
2017-05-27T12:04:59.381Z,38.75
2017-05-27T12:05:59.968Z,37.87
2017-05-27T12:07:00.567Z,37.77
2017-05-27T12:08:01.156Z,38.77
2017-05-27T12:09:01.744Z,38.77
2017-05-27T12:10:02.332Z,38.48
2017-05-27T12:11:02.921Z,37.79
2017-05-27T12:12:03.508Z,37.89
2017-05-27T12:13:04.096Z,37.50
2017-05-27T12:14:04.689Z,36.23
2017-05-27T12:15:05.273Z,36.13
2017-05-27T12:16:05.858Z,35.82
2017-05-27T12:17:06.447Z,36.72
2017-05-27T12:18:07.032Z,36.51
2017-05-27T12:19:07.618Z,36.21
2017-05-27T12:20:08.207Z,35.74
2017-05-27T12:21:08.794Z,35.64
2017-05-27T12:22:09.379Z,36.04
2017-05-27T12:23:09.966Z,36.62
2017-05-27T12:24:10.553Z,36.33
2017-05-27T12:25:11.143Z,36.82
2017-05-27T12:26:11.729Z,36.24
2017-05-27T12:27:12.330Z,35.75
2017-05-27T12:28:12.917Z,35.66
2017-05-27T12:29:13.505Z,36.07
2017-05-27T12:30:14.092Z,35.58
2017-05-27T12:31:14.678Z,35.58
2017-05-27T12:32:15.267Z,35.95
2017-05-27T12:33:15.852Z,36.05
2017-05-27T12:34:16.440Z,35.85
2017-05-27T12:35:17.031Z,36.73
2017-05-27T12:36:17.616Z,36.70
2017-05-27T12:37:18.204Z,36.43
2017-05-27T12:38:18.790Z,35.84
2017-05-27T12:39:19.378Z,35.95
2017-05-27T12:40:19.966Z,35.85
2017-05-27T12:41:20.553Z,35.56
2017-05-27T12:42:21.142Z,35.85
2017-05-27T12:43:21.730Z,35.07
2017-05-27T12:44:22.317Z,35.68
2017-05-27T12:45:22.902Z,35.17
2017-05-27T12:46:23.491Z,34.89
2017-05-27T12:47:24.089Z,33.41
2017-05-27T12:48:24.678Z,34.88
2017-05-27T12:49:25.265Z,35.38
2017-05-27T12:50:25.852Z,35.28
2017-05-27T12:51:26.439Z,35.38
2017-05-27T12:52:27.029Z,34.78
2017-05-27T12:53:27.621Z,35.85
2017-05-27T12:54:28.202Z,35.85
2017-05-27T12:55:28.790Z,34.89
2017-05-27T12:56:29.390Z,34.19
2017-05-27T12:57:29.977Z,35.17
2017-05-27T12:58:30.567Z,34.70
2017-05-27T12:59:31.152Z,34.70